Time;durP1;ratioP1;P1;durP2;ratioP2;P2;SDS_P1;SDS_P2;PMS_P1;PMS_P2;Temp;Humidity;BMP_temperature;BMP_pressure;BME280_temperature;BME280_humidity;BME280_pressure;Samples;Min_cycle;Max_cycle;Signal;HPM_P1;HPM_P2
2022/12/29 00:00:14;;;;;;;1.80;1.70;;;10.10;99.90;;;;;;5092536;28;20664;-80
2022/12/29 00:02:41;;;;;;;1.87;1.63;;;10.10;99.90;;;;;;5077199;28;20203;-81
2022/12/29 00:05:08;;;;;;;1.97;1.70;;;10.20;99.90;;;;;;5087804;28;20658;-81
2022/12/29 00:07:35;;;;;;;1.93;1.73;;;10.20;99.90;;;;;;5086893;28;20594;-80
2022/12/29 00:10:02;;;;;;;3.57;1.90;;;10.30;99.90;;;;;;5092948;28;20677;-81
2022/12/29 00:15:36;;;;;;;3.53;1.93;;;10.20;99.90;;;;;;5094781;28;20205;-82
2022/12/29 00:18:01;;;;;;;2.83;1.70;;;10.30;99.90;;;;;;5093480;28;20733;-82
2022/12/29 00:37:12;;;;;;;2.77;1.40;;;10.50;99.90;;;;;;5093977;28;20185;-82
2022/12/29 00:45:08;;;;;;;1.80;1.30;;;10.40;99.90;;;;;;5097818;28;20207;-81
2022/12/29 00:47:36;;;;;;;1.30;1.20;;;10.50;99.90;;;;;;5096072;28;20225;-82
2022/12/29 00:50:03;;;;;;;2.83;1.80;;;10.50;99.90;;;;;;5091658;28;20210;-83
2022/12/29 00:52:30;;;;;;;1.77;1.20;;;10.60;99.90;;;;;;5076348;28;20710;-81
2022/12/29 00:54:56;;;;;;;2.43;1.50;;;10.60;99.90;;;;;;5076781;28;20190;-81
2022/12/29 00:57:23;;;;;;;1.40;1.20;;;10.50;99.90;;;;;;5094850;28;20217;-82
2022/12/29 00:59:50;;;;;;;1.67;1.20;;;10.40;99.90;;;;;;5098874;28;20196;-82
2022/12/29 01:02:17;;;;;;;1.53;1.43;;;10.40;99.90;;;;;;5095981;28;20576;-80
2022/12/29 01:04:45;;;;;;;1.37;1.23;;;10.50;99.90;;;;;;5098737;28;20574;-81
2022/12/29 01:07:11;;;;;;;2.47;1.63;;;10.50;99.90;;;;;;5092964;28;20202;-81
2022/12/29 01:15:04;;;;;;;1.20;1.10;;;10.50;99.90;;;;;;5090158;28;20279;-81
2022/12/29 01:17:30;;;;;;;2.80;1.50;;;10.40;99.90;;;;;;5081132;28;20218;-81
2022/12/29 01:19:59;;;;;;;1.70;1.60;;;10.40;99.90;;;;;;5089438;28;20197;-80
2022/12/29 01:22:25;;;;;;;1.60;1.50;;;10.40;99.90;;;;;;5090804;28;20194;-80
2022/12/29 01:24:52;;;;;;;1.50;1.40;;;10.40;99.90;;;;;;5098235;28;20202;-81
2022/12/29 01:27:19;;;;;;;2.10;1.77;;;10.40;99.90;;;;;;5108304;28;20203;-82
2022/12/29 01:29:46;;;;;;;3.20;1.60;;;10.40;99.90;;;;;;5103993;28;20206;-81
2022/12/29 01:32:12;;;;;;;2.13;1.50;;;10.40;99.90;;;;;;5102344;28;20715;-82
2022/12/29 01:34:39;;;;;;;2.33;1.40;;;10.40;99.90;;;;;;5084489;28;20211;-82
2022/12/29 01:37:07;;;;;;;2.17;1.63;;;10.40;99.90;;;;;;5099895;28;20292;-82
2022/12/29 01:39:34;;;;;;;5.53;1.80;;;10.40;99.90;;;;;;5094170;28;20216;-82
2022/12/29 01:42:01;;;;;;;2.17;1.40;;;10.40;99.90;;;;;;5098365;28;20204;-81
2022/12/29 01:44:50;;;;;;;2.57;1.90;;;10.40;99.90;;;;;;5098046;28;20205;-81
2022/12/29 01:47:23;;;;;;;1.43;1.20;;;10.30;99.90;;;;;;5100464;28;20186;-82
2022/12/29 01:49:51;;;;;;;2.20;1.70;;;10.40;99.90;;;;;;5093097;28;20214;-81
2022/12/29 01:52:19;;;;;;;2.50;1.50;;;10.40;99.90;;;;;;5097698;28;20594;-82
2022/12/29 01:54:51;;;;;;;1.57;1.20;;;10.40;99.90;;;;;;5100364;28;20202;-82
2022/12/29 01:57:22;;;;;;;2.57;1.40;;;10.50;99.90;;;;;;5090102;28;20695;-82
2022/12/29 01:59:54;;;;;;;1.30;1.20;;;10.40;99.90;;;;;;5079350;28;20200;-80
2022/12/29 02:02:21;;;;;;;1.27;1.20;;;10.40;99.90;;;;;;5093767;28;20615;-81
2022/12/29 02:04:48;;;;;;;1.90;1.30;;;10.40;99.90;;;;;;5096794;28;20202;-82
2022/12/29 02:07:20;;;;;;;1.10;1.00;;;10.40;99.90;;;;;;5079811;28;20206;-81
2022/12/29 02:09:49;;;;;;;1.83;1.60;;;10.40;99.90;;;;;;5077215;28;20181;-82
2022/12/29 02:12:17;;;;;;;1.40;1.30;;;10.40;99.90;;;;;;5075854;28;20236;-82
2022/12/29 02:14:44;;;;;;;2.53;1.20;;;10.50;99.90;;;;;;5077799;28;20202;-81
2022/12/29 02:17:20;;;;;;;2.07;1.20;;;10.50;99.90;;;;;;5095898;28;20200;-82
2022/12/29 02:20:31;;;;;;;1.03;1.03;;;10.60;99.90;;;;;;5097164;28;20194;-81
2022/12/29 02:23:17;;;;;;;1.10;1.00;;;10.60;99.90;;;;;;5069756;28;20568;-81
2022/12/29 02:26:17;;;;;;;2.53;1.73;;;10.60;99.90;;;;;;5096601;28;20210;-82
2022/12/29 02:29:10;;;;;;;1.87;1.10;;;10.60;99.90;;;;;;5076406;28;20249;-81
2022/12/29 02:31:43;;;;;;;4.70;1.30;;;10.80;99.90;;;;;;5081212;28;20582;-81
2022/12/29 02:34:20;;;;;;;0.90;0.90;;;10.80;99.90;;;;;;5096211;28;20206;-82
2022/12/29 02:36:57;;;;;;;1.47;1.10;;;10.80;99.90;;;;;;5097018;28;20199;-80
2022/12/29 02:39:33;;;;;;;1.80;1.60;;;10.80;99.90;;;;;;5096269;28;20221;-81
2022/12/29 02:42:09;;;;;;;1.77;1.10;;;10.80;99.90;;;;;;5097089;28;20190;-82
2022/12/29 02:44:51;;;;;;;1.60;0.90;;;10.90;99.90;;;;;;5096706;28;20201;-82
2022/12/29 02:47:25;;;;;;;1.47;0.90;;;10.80;99.90;;;;;;5094825;28;20216;-80
2022/12/29 02:50:00;;;;;;;1.27;1.10;;;10.90;99.90;;;;;;5096513;28;20201;-82
2022/12/29 02:52:31;;;;;;;2.40;1.30;;;10.90;99.90;;;;;;5095812;28;20673;-81
2022/12/29 02:54:58;;;;;;;1.20;1.10;;;10.80;99.90;;;;;;5095225;28;20182;-82
2022/12/29 02:57:34;;;;;;;0.90;0.90;;;10.80;99.90;;;;;;5089345;28;20317;-82
2022/12/29 03:00:04;;;;;;;2.40;1.23;;;10.90;99.90;;;;;;5095280;28;20197;-80
2022/12/29 03:02:49;;;;;;;1.10;1.00;;;10.90;99.90;;;;;;5095556;28;20605;-81
2022/12/29 03:05:33;;;;;;;3.00;1.40;;;10.80;99.90;;;;;;5095434;28;20205;-82
2022/12/29 03:08:11;;;;;;;1.57;1.20;;;10.90;99.90;;;;;;5084870;28;20242;-82
2022/12/29 03:10:46;;;;;;;1.93;1.20;;;10.90;99.90;;;;;;5088854;28;20569;-83
2022/12/29 03:16:13;;;;;;;1.30;1.20;;;11.10;99.90;;;;;;5113987;28;20263;-82
2022/12/29 03:18:51;;;;;;;1.37;1.27;;;10.90;99.90;;;;;;5104202;28;20241;-80
2022/12/29 03:22:26;;;;;;;1.80;1.47;;;11.00;99.90;;;;;;5085343;28;20202;-82
2022/12/29 03:24:15;;;;;;;1.60;1.50;;;10.90;99.90;;;;;;5097326;28;20205;-81
2022/12/29 03:26:43;;;;;;;1.90;1.50;;;10.90;99.90;;;;;;5088506;28;20205;-81
2022/12/29 03:29:12;;;;;;;1.37;1.27;;;10.80;99.90;;;;;;5093977;28;20229;-82
2022/12/29 03:31:39;;;;;;;1.63;1.53;;;10.80;99.90;;;;;;5093822;28;20674;-82
2022/12/29 03:34:09;;;;;;;1.30;1.20;;;10.80;99.90;;;;;;5094260;28;20212;-82
2022/12/29 03:36:43;;;;;;;1.40;1.30;;;10.70;99.90;;;;;;5095803;28;20212;-82
2022/12/29 03:39:12;;;;;;;1.57;1.10;;;10.70;99.90;;;;;;5094349;28;20910;-82
2022/12/29 03:41:44;;;;;;;1.93;1.63;;;10.80;99.90;;;;;;5096301;28;20251;-81
2022/12/29 03:44:12;;;;;;;3.50;1.43;;;10.70;99.90;;;;;;5093432;28;20276;-81
2022/12/29 03:46:38;;;;;;;2.33;1.30;;;10.70;99.90;;;;;;5092444;28;20562;-81
2022/12/29 03:49:07;;;;;;;1.90;1.47;;;10.60;99.90;;;;;;5094198;28;20222;-82
2022/12/29 03:51:33;;;;;;;2.30;1.23;;;10.60;99.90;;;;;;5091908;28;20645;-81
2022/12/29 03:54:00;;;;;;;1.87;1.43;;;10.60;99.90;;;;;;5072941;28;20202;-82
2022/12/29 03:56:27;;;;;;;1.50;1.20;;;10.80;99.90;;;;;;5079508;28;20205;-82
2022/12/29 03:58:54;;;;;;;2.70;1.23;;;10.60;99.90;;;;;;5078103;28;20604;-80
2022/12/29 04:01:21;;;;;;;1.40;1.30;;;10.70;99.90;;;;;;5091801;28;20292;-82
2022/12/29 04:03:47;;;;;;;1.30;1.20;;;10.70;99.90;;;;;;5088992;28;20558;-82
2022/12/29 04:06:15;;;;;;;1.40;0.97;;;10.60;99.90;;;;;;5104309;28;20283;-82
2022/12/29 04:08:42;;;;;;;0.70;0.70;;;10.80;99.90;;;;;;5088541;28;20218;-81
2022/12/29 04:11:09;;;;;;;1.50;1.13;;;10.80;99.90;;;;;;5092428;28;20197;-82
2022/12/29 04:13:36;;;;;;;0.97;0.87;;;10.80;99.90;;;;;;5089016;28;20206;-84
2022/12/29 04:16:02;;;;;;;1.50;0.87;;;10.90;99.90;;;;;;5095269;28;20570;-81
2022/12/29 04:18:29;;;;;;;1.37;1.20;;;10.90;99.90;;;;;;5075646;28;20317;-82
2022/12/29 04:21:03;;;;;;;1.30;1.03;;;10.90;99.90;;;;;;5095583;28;20288;-82
2022/12/29 04:23:34;;;;;;;1.40;1.30;;;10.90;99.90;;;;;;5088023;28;20650;-83
2022/12/29 04:26:01;;;;;;;2.37;1.30;;;11.00;99.90;;;;;;5081006;28;20199;-82
2022/12/29 04:28:28;;;;;;;2.00;1.20;;;10.90;99.90;;;;;;5079701;28;20693;-82
2022/12/29 04:30:55;;;;;;;1.00;1.00;;;11.10;99.90;;;;;;5075307;28;20746;-81
2022/12/29 04:33:23;;;;;;;2.50;1.10;;;11.00;99.90;;;;;;5087354;28;20251;-82
2022/12/29 04:35:50;;;;;;;1.70;0.93;;;11.00;99.90;;;;;;5074717;28;20662;-81
2022/12/29 04:38:17;;;;;;;1.33;1.17;;;11.00;99.90;;;;;;5074281;28;20253;-81
2022/12/29 04:40:46;;;;;;;1.27;0.77;;;11.00;99.90;;;;;;5089078;28;20204;-82
2022/12/29 04:43:13;;;;;;;1.73;0.80;;;11.10;99.90;;;;;;5090462;28;20198;-82
2022/12/29 04:45:40;;;;;;;0.77;0.77;;;11.10;99.90;;;;;;5095462;28;20681;-81
2022/12/29 04:48:07;;;;;;;0.80;0.50;;;11.10;99.90;;;;;;5091440;28;20308;-82
2022/12/29 04:50:33;;;;;;;0.70;0.70;;;11.30;99.90;;;;;;5080267;28;20248;-82
2022/12/29 04:53:00;;;;;;;2.07;0.77;;;11.30;99.90;;;;;;5090310;28;20210;-82
2022/12/29 04:55:27;;;;;;;0.93;0.80;;;11.40;99.90;;;;;;5084596;28;20208;-82
2022/12/29 04:57:56;;;;;;;1.23;0.73;;;11.40;99.90;;;;;;5093816;28;20713;-82
2022/12/29 05:00:23;;;;;;;2.27;0.93;;;11.50;99.90;;;;;;5094966;28;20277;-81
2022/12/29 05:02:50;;;;;;;0.70;0.60;;;11.50;99.90;;;;;;5091533;28;20212;-81
2022/12/29 05:05:17;;;;;;;0.50;0.50;;;11.40;99.90;;;;;;5094298;28;20208;-82
2022/12/29 05:07:44;;;;;;;2.03;1.10;;;11.80;99.90;;;;;;5092994;28;20226;-81
2022/12/29 05:10:11;;;;;;;0.53;0.53;;;11.80;99.90;;;;;;5082070;28;20218;-82
2022/12/29 05:12:39;;;;;;;1.30;0.67;;;11.70;99.90;;;;;;5073153;28;20217;-82
2022/12/29 05:15:09;;;;;;;0.57;0.40;;;11.70;99.90;;;;;;5074441;28;20202;-80
2022/12/29 05:17:36;;;;;;;0.60;0.60;;;11.80;99.90;;;;;;5091895;28;20218;-81
2022/12/29 05:20:04;;;;;;;0.77;0.70;;;11.90;99.90;;;;;;5083394;28;20254;-82
2022/12/29 05:22:31;;;;;;;0.80;0.80;;;11.80;99.90;;;;;;5093337;28;20210;-83
2022/12/29 05:24:58;;;;;;;0.47;0.47;;;11.70;99.90;;;;;;5091950;28;20211;-82
2022/12/29 05:27:25;;;;;;;1.33;0.60;;;11.70;99.90;;;;;;5087541;28;20288;-83
2022/12/29 05:29:52;;;;;;;0.70;0.63;;;12.00;99.90;;;;;;5092082;28;20194;-82
2022/12/29 05:32:20;;;;;;;0.67;0.33;;;11.90;99.90;;;;;;5088254;28;20596;-80
2022/12/29 05:34:47;;;;;;;0.87;0.60;;;12.00;99.90;;;;;;5098412;28;20202;-81
2022/12/29 05:37:13;;;;;;;0.50;0.50;;;11.80;99.90;;;;;;5084588;28;20208;-82
2022/12/29 05:39:40;;;;;;;2.67;0.63;;;11.80;99.90;;;;;;5091857;28;20204;-82
2022/12/29 05:42:07;;;;;;;0.70;0.53;;;11.70;99.90;;;;;;5098173;28;20197;-82
2022/12/29 05:44:34;;;;;;;0.67;0.67;;;11.80;99.90;;;;;;5097348;28;20241;-81
2022/12/29 05:47:01;;;;;;;0.40;0.40;;;11.70;99.90;;;;;;5097569;28;20221;-81
2022/12/29 05:49:29;;;;;;;0.80;0.40;;;11.60;99.90;;;;;;5097809;28;20325;-81
2022/12/29 05:51:56;;;;;;;0.57;0.57;;;11.60;99.90;;;;;;5113022;28;20216;-81
2022/12/29 05:54:22;;;;;;;0.40;0.40;;;11.60;99.90;;;;;;5105853;28;20197;-82
2022/12/29 05:56:49;;;;;;;0.90;0.57;;;11.50;99.90;;;;;;5098503;28;20284;-82
2022/12/29 05:59:16;;;;;;;1.70;0.67;;;11.40;99.90;;;;;;5097989;28;20588;-81
2022/12/29 06:01:43;;;;;;;0.40;0.40;;;11.40;99.90;;;;;;5097719;28;20202;-83
2022/12/29 06:04:10;;;;;;;0.60;0.60;;;11.30;99.90;;;;;;5098175;28;20205;-82
2022/12/29 06:06:38;;;;;;;1.17;0.63;;;11.40;99.90;;;;;;5097459;28;20206;-81
2022/12/29 06:09:05;;;;;;;1.13;0.70;;;11.30;99.90;;;;;;5078567;28;20313;-81
2022/12/29 06:11:32;;;;;;;2.57;0.60;;;11.20;99.90;;;;;;5077605;28;20217;-81
2022/12/29 06:13:59;;;;;;;0.50;0.50;;;11.20;99.90;;;;;;5085769;28;20220;-82
2022/12/29 06:16:26;;;;;;;0.70;0.70;;;11.10;99.90;;;;;;5090786;28;20277;-82
2022/12/29 06:18:53;;;;;;;0.87;0.87;;;11.20;99.90;;;;;;5095845;28;20234;-81
2022/12/29 06:21:20;;;;;;;1.17;0.60;;;11.20;99.90;;;;;;5094431;28;20205;-82
2022/12/29 06:23:48;;;;;;;1.07;0.63;;;11.10;99.90;;;;;;5095335;28;20190;-81
2022/12/29 06:26:15;;;;;;;0.60;0.60;;;11.10;99.90;;;;;;5077396;28;20289;-81
2022/12/29 06:28:41;;;;;;;0.60;0.60;;;11.20;99.90;;;;;;5081768;28;20217;-80
2022/12/29 06:31:10;;;;;;;0.50;0.50;;;11.20;99.90;;;;;;5088718;28;20713;-81
2022/12/29 06:33:36;;;;;;;0.50;0.50;;;11.20;99.90;;;;;;5095419;28;20220;-84
2022/12/29 06:36:04;;;;;;;1.80;0.60;;;11.50;99.90;;;;;;5094007;28;20202;-81
2022/12/29 06:38:31;;;;;;;0.40;0.40;;;11.40;99.90;;;;;;5097688;28;20237;-81
2022/12/29 06:40:59;;;;;;;0.40;0.40;;;11.40;99.90;;;;;;5094596;28;20205;-81
2022/12/29 06:43:25;;;;;;;0.23;0.23;;;11.40;99.90;;;;;;5096974;28;20198;-82
2022/12/29 06:45:52;;;;;;;0.50;0.50;;;11.40;99.90;;;;;;5096279;28;20201;-80
2022/12/29 06:48:19;;;;;;;0.40;0.40;;;11.50;99.90;;;;;;5095919;28;20209;-81
2022/12/29 06:50:46;;;;;;;0.80;0.40;;;11.60;99.90;;;;;;5101488;28;20197;-81
2022/12/29 06:53:12;;;;;;;0.30;0.30;;;11.60;99.90;;;;;;5098429;28;20210;-81
2022/12/29 06:55:39;;;;;;;0.20;0.20;;;11.50;99.90;;;;;;5080636;28;20193;-81
2022/12/29 06:58:08;;;;;;;0.20;0.20;;;11.50;99.90;;;;;;5092900;28;20237;-82
2022/12/29 07:00:34;;;;;;;0.40;0.40;;;11.60;99.90;;;;;;5092677;28;20202;-82
2022/12/29 07:03:01;;;;;;;0.60;0.60;;;11.60;99.90;;;;;;5077390;28;20513;-81
2022/12/29 07:05:28;;;;;;;0.47;0.47;;;11.70;99.90;;;;;;5089622;28;20659;-82
2022/12/29 07:07:55;;;;;;;0.60;0.43;;;11.70;99.90;;;;;;5082641;28;20222;-81
2022/12/29 07:10:23;;;;;;;0.30;0.20;;;11.80;99.90;;;;;;5093371;28;20204;-80
2022/12/29 07:12:50;;;;;;;0.40;0.40;;;11.90;99.90;;;;;;5083892;28;20218;-80
2022/12/29 07:15:18;;;;;;;0.27;0.27;;;11.90;99.90;;;;;;5090760;28;20214;-82
2022/12/29 07:17:45;;;;;;;0.40;0.20;;;12.00;99.90;;;;;;5096267;28;20213;-81
2022/12/29 07:20:12;;;;;;;0.37;0.20;;;12.10;99.90;;;;;;5102151;28;20777;-81
2022/12/29 07:22:39;;;;;;;0.30;0.30;;;12.20;99.90;;;;;;5100550;28;20204;-81
2022/12/29 07:25:06;;;;;;;0.20;0.20;;;12.10;99.90;;;;;;5095282;28;20287;-82
2022/12/29 07:27:33;;;;;;;0.30;0.20;;;12.10;99.90;;;;;;5093290;28;20222;-82
2022/12/29 07:30:00;;;;;;;0.40;0.40;;;11.80;99.90;;;;;;5080385;28;20288;-82
2022/12/29 07:32:28;;;;;;;0.50;0.40;;;11.90;99.90;;;;;;5091848;28;20224;-81
2022/12/29 07:34:54;;;;;;;1.27;0.37;;;12.00;99.90;;;;;;5093999;28;20202;-81
2022/12/29 07:37:21;;;;;;;1.13;0.73;;;12.00;99.90;;;;;;5083977;28;20205;-83
2022/12/29 07:39:48;;;;;;;0.60;0.40;;;12.10;99.90;;;;;;5079487;28;20193;-81
2022/12/29 07:42:15;;;;;;;1.23;0.60;;;12.30;99.90;;;;;;5094493;28;20204;-80
2022/12/29 07:44:41;;;;;;;0.80;0.27;;;12.00;99.90;;;;;;5094677;28;20212;-82
2022/12/29 07:47:08;;;;;;;1.20;0.47;;;12.00;99.90;;;;;;5091096;28;20650;-82
2022/12/29 07:49:36;;;;;;;1.87;0.60;;;11.80;99.90;;;;;;5077580;28;20732;-82
2022/12/29 07:52:03;;;;;;;1.20;0.50;;;11.90;99.90;;;;;;5091071;28;20460;-83
2022/12/29 07:54:30;;;;;;;0.40;0.40;;;11.80;99.90;;;;;;5087132;28;20230;-82
2022/12/29 07:56:57;;;;;;;0.40;0.40;;;11.90;99.90;;;;;;5088411;28;20205;-81
2022/12/29 07:59:24;;;;;;;1.83;0.60;;;11.90;99.90;;;;;;5094735;28;20766;-83
2022/12/29 08:01:51;;;;;;;0.93;0.50;;;11.80;99.90;;;;;;5084708;28;20654;-81
2022/12/29 08:04:17;;;;;;;1.03;0.67;;;11.80;99.90;;;;;;5081434;28;20205;-83
2022/12/29 08:06:46;;;;;;;2.33;0.40;;;11.90;99.90;;;;;;5092233;28;20296;-83
2022/12/29 08:09:13;;;;;;;1.40;0.97;;;11.70;99.90;;;;;;5094411;28;20221;-82
2022/12/29 08:11:40;;;;;;;1.10;1.00;;;11.50;99.90;;;;;;5082096;28;20206;-82
2022/12/29 08:14:07;;;;;;;2.53;1.03;;;11.30;99.90;;;;;;5092843;28;20682;-82
2022/12/29 08:16:34;;;;;;;0.80;0.80;;;11.30;99.90;;;;;;5079094;28;20667;-82
2022/12/29 08:19:00;;;;;;;0.30;0.30;;;11.20;99.90;;;;;;5081957;28;20694;-82
2022/12/29 08:21:28;;;;;;;0.73;0.73;;;11.20;99.90;;;;;;5093543;28;20209;-83
2022/12/29 08:23:58;;;;;;;1.40;0.50;;;11.20;99.90;;;;;;5081292;28;20200;-83
2022/12/29 08:26:25;;;;;;;0.30;0.30;;;11.30;99.90;;;;;;5084723;28;20198;-81
2022/12/29 08:28:53;;;;;;;0.30;0.30;;;11.20;99.90;;;;;;5083892;28;20230;-81
2022/12/29 08:31:20;;;;;;;0.90;0.50;;;11.10;99.90;;;;;;5089099;28;20194;-82
2022/12/29 08:33:47;;;;;;;0.97;0.60;;;11.00;99.90;;;;;;5086770;28;20225;-81
2022/12/29 08:36:13;;;;;;;0.50;0.50;;;11.00;99.90;;;;;;5089576;28;20309;-81
2022/12/29 08:38:40;;;;;;;0.67;0.67;;;10.90;99.90;;;;;;5090397;28;20232;-82
2022/12/29 08:41:09;;;;;;;3.17;1.40;;;10.80;99.90;;;;;;5090904;28;20566;-82
2022/12/29 08:43:35;;;;;;;2.13;1.60;;;10.90;99.90;;;;;;5095154;28;20209;-82
2022/12/29 08:46:02;;;;;;;1.53;1.20;;;10.80;99.90;;;;;;5091809;28;20214;-82
2022/12/29 08:48:29;;;;;;;2.97;1.10;;;10.80;99.90;;;;;;5084581;28;20222;-82
2022/12/29 08:50:56;;;;;;;2.90;1.10;;;10.80;99.90;;;;;;5089791;28;20205;-82
2022/12/29 08:53:23;;;;;;;2.80;1.30;;;10.70;99.90;;;;;;5091030;28;20221;-82
2022/12/29 08:55:57;;;;;;;7.30;1.70;;;10.60;99.90;;;;;;5085117;28;20226;-81
2022/12/29 08:58:26;;;;;;;1.93;1.20;;;10.40;99.90;;;;;;5087665;28;20230;-82
2022/12/29 09:00:54;;;;;;;4.43;1.20;;;10.20;99.90;;;;;;5085635;28;20202;-82
2022/12/29 09:03:21;;;;;;;3.13;1.10;;;10.10;99.90;;;;;;5089634;28;20666;-82
2022/12/29 09:05:49;;;;;;;1.23;0.97;;;10.10;99.90;;;;;;5089625;28;20205;-82
2022/12/29 09:08:16;;;;;;;1.10;0.70;;;10.20;99.90;;;;;;5086481;28;20607;-82
2022/12/29 09:10:43;;;;;;;1.07;0.80;;;10.20;99.90;;;;;;5083881;28;20747;-83
2022/12/29 09:13:10;;;;;;;1.70;0.60;;;10.30;99.90;;;;;;5092905;28;20225;-83
2022/12/29 09:15:39;;;;;;;1.60;0.93;;;10.30;99.90;;;;;;5091635;28;20281;-84
2022/12/29 09:18:06;;;;;;;2.27;0.90;;;10.20;99.90;;;;;;5087635;28;20482;-83
2022/12/29 09:20:33;;;;;;;1.47;1.00;;;10.30;99.90;;;;;;5086870;28;20375;-82
2022/12/29 09:23:01;;;;;;;4.60;2.40;;;10.30;99.90;;;;;;5087933;28;20297;-83
2022/12/29 09:25:28;;;;;;;1.17;1.07;;;10.60;99.90;;;;;;5090846;28;20212;-83
2022/12/29 09:27:56;;;;;;;2.40;0.77;;;10.60;99.90;;;;;;5086098;28;20253;-82
2022/12/29 09:30:24;;;;;;;0.57;0.57;;;10.50;99.90;;;;;;5096327;28;20280;-82
2022/12/29 09:32:52;;;;;;;2.23;0.77;;;10.50;99.90;;;;;;5086749;28;20213;-83
2022/12/29 09:35:20;;;;;;;0.83;0.60;;;10.50;99.90;;;;;;5096038;28;20213;-83
2022/12/29 09:37:46;;;;;;;3.40;1.43;;;10.50;99.90;;;;;;5084738;28;20246;-84
2022/12/29 09:40:25;;;;;;;1.20;1.10;;;10.50;99.90;;;;;;5091242;28;20293;-85
2022/12/29 09:43:05;;;;;;;3.37;0.83;;;10.50;99.90;;;;;;5091864;28;20198;-84
2022/12/29 09:45:40;;;;;;;0.80;0.80;;;10.40;99.90;;;;;;5091553;28;20201;-84
2022/12/29 09:48:15;;;;;;;1.23;0.50;;;10.50;99.90;;;;;;5085173;28;20303;-84
2022/12/29 09:50:48;;;;;;;0.80;0.70;;;10.40;99.90;;;;;;5094969;28;20296;-85
2022/12/29 09:53:21;;;;;;;2.30;0.80;;;10.50;99.90;;;;;;5093652;28;20386;-85
2022/12/29 09:55:50;;;;;;;7.40;1.53;;;10.50;99.90;;;;;;5093836;28;20741;-85
2022/12/29 09:58:24;;;;;;;1.63;0.90;;;10.60;99.90;;;;;;5087170;28;20320;-85
2022/12/29 10:00:57;;;;;;;1.53;0.80;;;10.60;99.90;;;;;;5091232;28;20239;-85
2022/12/29 10:03:28;;;;;;;2.80;1.30;;;10.80;99.90;;;;;;5089910;28;20216;-84
2022/12/29 10:06:03;;;;;;;5.33;1.33;;;10.90;99.90;;;;;;5097768;28;20197;-84
2022/12/29 10:08:38;;;;;;;1.47;1.10;;;11.00;99.90;;;;;;5089695;28;20239;-84
2022/12/29 10:11:14;;;;;;;3.27;0.93;;;11.20;99.90;;;;;;5097480;28;20197;-83
2022/12/29 10:13:55;;;;;;;1.80;1.00;;;11.30;99.90;;;;;;5091324;28;20309;-84
2022/12/29 10:16:32;;;;;;;1.33;1.07;;;11.60;99.90;;;;;;5089948;28;20201;-82
2022/12/29 10:19:20;;;;;;;1.73;0.90;;;11.70;99.90;;;;;;5083983;28;20217;-82
2022/12/29 10:22:01;;;;;;;3.50;1.40;;;11.60;99.90;;;;;;5089499;28;20202;-82
2022/12/29 10:24:29;;;;;;;2.97;1.40;;;11.70;99.90;;;;;;5085723;28;20206;-80
2022/12/29 10:26:59;;;;;;;2.23;1.47;;;11.50;99.90;;;;;;5089315;28;20202;-83
2022/12/29 10:29:33;;;;;;;3.93;2.00;;;11.60;99.90;;;;;;5091988;28;20217;-84
2022/12/29 10:32:03;;;;;;;2.93;1.47;;;11.50;99.90;;;;;;5087761;28;20213;-83
2022/12/29 10:34:37;;;;;;;2.10;1.10;;;11.50;99.90;;;;;;5084659;28;20595;-85
2022/12/29 10:37:10;;;;;;;3.60;1.33;;;11.60;99.90;;;;;;5088742;28;20560;-83
2022/12/29 10:39:41;;;;;;;4.83;1.20;;;11.70;99.90;;;;;;5082497;28;20457;-84
2022/12/29 10:42:15;;;;;;;2.87;0.90;;;11.70;99.90;;;;;;5086832;28;20206;-83
2022/12/29 10:44:42;;;;;;;2.80;1.20;;;11.80;99.90;;;;;;5088802;28;20666;-83
2022/12/29 10:47:16;;;;;;;3.67;1.40;;;11.80;99.90;;;;;;5084233;28;20360;-84
2022/12/29 10:49:48;;;;;;;1.90;0.90;;;12.00;99.90;;;;;;5079255;28;20209;-84
2022/12/29 10:52:16;;;;;;;3.40;0.87;;;12.10;99.90;;;;;;5088232;28;20197;-83
2022/12/29 10:54:49;;;;;;;2.83;0.90;;;12.00;99.90;;;;;;5083018;28;20221;-84
2022/12/29 10:57:23;;;;;;;3.50;1.10;;;12.10;99.90;;;;;;5080696;28;20233;-85
2022/12/29 10:59:50;;;;;;;2.93;1.13;;;12.00;99.90;;;;;;5091810;28;20662;-84
2022/12/29 11:03:00;;;;;;;0.80;0.80;;;11.80;99.90;;;;;;5082582;28;20207;-84
2022/12/29 11:05:36;;;;;;;4.33;1.07;;;11.80;99.90;;;;;;5087629;28;20622;-85
2022/12/29 11:08:08;;;;;;;2.33;1.00;;;11.80;99.90;;;;;;5080627;28;20213;-81
2022/12/29 11:10:39;;;;;;;3.37;1.00;;;11.90;99.90;;;;;;5088397;28;20579;-81
2022/12/29 11:13:14;;;;;;;2.77;1.00;;;11.90;99.90;;;;;;5081874;28;20222;-83
2022/12/29 11:15:42;;;;;;;2.00;0.90;;;11.90;99.90;;;;;;5088547;28;20582;-84
2022/12/29 11:18:21;;;;;;;2.13;0.80;;;11.90;99.90;;;;;;5083331;28;20490;-85
2022/12/29 11:20:53;;;;;;;2.40;1.00;;;12.00;99.90;;;;;;5088992;28;20201;-85
2022/12/29 11:23:31;;;;;;;2.93;1.03;;;12.00;99.90;;;;;;5081235;28;20591;-83
2022/12/29 11:26:17;;;;;;;3.60;0.87;;;12.00;99.90;;;;;;5081490;28;20623;-83
2022/12/29 11:28:45;;;;;;;1.57;0.70;;;12.00;99.90;;;;;;5077476;28;20244;-83
2022/12/29 11:31:17;;;;;;;4.20;0.90;;;12.00;99.90;;;;;;5083024;28;20759;-82
2022/12/29 11:33:44;;;;;;;6.23;1.73;;;12.00;99.90;;;;;;5079114;28;20237;-85
2022/12/29 11:36:17;;;;;;;5.80;1.80;;;11.90;99.90;;;;;;5082571;28;20578;-85
2022/12/29 11:38:50;;;;;;;9.03;2.30;;;11.80;99.90;;;;;;5087595;28;20879;-86
2022/12/29 11:41:22;;;;;;;2.17;1.33;;;11.80;99.90;;;;;;5086488;28;20221;-85
2022/12/29 11:43:49;;;;;;;4.07;1.40;;;11.90;99.90;;;;;;5083241;28;20202;-84
2022/12/29 11:46:19;;;;;;;2.93;0.90;;;11.80;99.90;;;;;;5084361;28;20651;-82
2022/12/29 11:48:48;;;;;;;3.67;1.30;;;11.80;99.90;;;;;;5086678;28;20599;-83
2022/12/29 11:51:24;;;;;;;5.17;1.20;;;11.60;99.90;;;;;;5094891;28;20205;-84
2022/12/29 11:53:54;;;;;;;2.80;1.20;;;11.60;99.90;;;;;;5090781;28;20320;-80
2022/12/29 11:56:32;;;;;;;4.43;1.00;;;11.50;99.90;;;;;;5087106;28;20205;-81
2022/12/29 11:58:59;;;;;;;6.90;1.47;;;11.50;99.90;;;;;;5082349;28;20604;-80
2022/12/29 12:01:34;;;;;;;4.93;0.90;;;11.70;99.90;;;;;;5087096;28;20313;-81
2022/12/29 12:04:05;;;;;;;2.87;0.73;;;11.80;99.90;;;;;;5080318;28;20197;-79
2022/12/29 12:06:37;;;;;;;3.53;1.10;;;12.30;99.90;;;;;;5073902;28;20210;-81
2022/12/29 12:09:08;;;;;;;4.53;1.00;;;12.10;99.90;;;;;;5081300;28;20742;-81
2022/12/29 12:11:38;;;;;;;3.07;1.00;;;11.80;99.90;;;;;;5081439;28;20212;-80
2022/12/29 12:14:13;;;;;;;4.87;1.07;;;11.70;99.90;;;;;;5086173;28;20312;-81
2022/12/29 12:16:43;;;;;;;6.17;1.10;;;11.70;99.90;;;;;;5081016;28;20205;-81
2022/12/29 12:19:16;;;;;;;4.80;1.00;;;11.70;99.90;;;;;;5080465;28;20274;-82
2022/12/29 12:21:49;;;;;;;2.77;0.87;;;11.70;99.90;;;;;;5081168;28;20197;-81
2022/12/29 12:24:37;;;;;;;2.33;1.00;;;11.60;99.90;;;;;;5081817;28;20710;-82
2022/12/29 12:27:14;;;;;;;3.03;1.17;;;11.60;99.90;;;;;;5076318;28;20298;-81
2022/12/29 12:29:48;;;;;;;3.53;0.93;;;11.80;99.90;;;;;;5081066;28;20231;-81
2022/12/29 12:32:20;;;;;;;3.20;1.20;;;11.70;99.90;;;;;;5081806;28;20198;-81
2022/12/29 12:34:48;;;;;;;3.27;1.37;;;11.80;99.90;;;;;;5079529;28;20624;-81
2022/12/29 12:37:38;;;;;;;3.47;1.10;;;11.80;99.90;;;;;;5080956;28;20213;-82
2022/12/29 12:40:25;;;;;;;4.17;1.43;;;11.80;99.90;;;;;;5073536;28;20208;-81
2022/12/29 12:43:08;;;;;;;3.37;1.60;;;11.90;99.90;;;;;;5074987;28;20225;-81
2022/12/29 12:45:46;;;;;;;5.47;1.97;;;11.70;99.90;;;;;;5079240;28;20239;-81
2022/12/29 12:48:29;;;;;;;4.23;1.77;;;11.80;99.90;;;;;;5086304;28;20631;-80
2022/12/29 12:51:09;;;;;;;3.90;1.37;;;11.70;99.90;;;;;;5085612;28;20206;-82
2022/12/29 12:53:50;;;;;;;5.40;2.00;;;11.70;99.90;;;;;;5080084;28;20214;-82
2022/12/29 12:56:56;;;;;;;1.83;1.33;;;11.70;99.90;;;;;;5075649;28;20595;-83
2022/12/29 12:59:38;;;;;;;1.30;1.13;;;11.60;99.90;;;;;;5074883;28;20232;-83
2022/12/29 13:02:18;;;;;;;4.17;1.30;;;11.70;99.90;;;;;;5083858;28;20549;-82
2022/12/29 13:04:59;;;;;;;2.77;1.50;;;11.60;99.90;;;;;;5081789;28;20560;-84
2022/12/29 13:07:38;;;;;;;2.80;1.50;;;11.60;99.90;;;;;;5090728;28;20236;-85
2022/12/29 13:10:28;;;;;;;1.50;1.37;;;11.60;99.90;;;;;;5080709;28;20332;-82
2022/12/29 13:13:11;;;;;;;2.67;1.40;;;11.60;99.90;;;;;;5080886;28;20210;-84
2022/12/29 13:15:48;;;;;;;5.90;2.27;;;11.60;99.90;;;;;;5085681;28;20217;-83
2022/12/29 13:18:24;;;;;;;4.17;1.37;;;11.60;99.90;;;;;;5084122;28;20229;-82
2022/12/29 13:20:58;;;;;;;5.33;2.30;;;11.70;99.90;;;;;;5075789;28;20206;-83
2022/12/29 13:23:31;;;;;;;4.23;1.70;;;11.70;99.90;;;;;;5084364;28;20609;-82
2022/12/29 13:26:07;;;;;;;5.83;1.53;;;11.70;99.90;;;;;;5083448;28;20204;-81
2022/12/29 13:28:45;;;;;;;3.50;1.40;;;11.70;99.90;;;;;;5096765;28;20713;-81
2022/12/29 13:31:18;;;;;;;8.10;2.13;;;11.70;99.90;;;;;;5086818;28;20290;-81
2022/12/29 13:33:54;;;;;;;3.43;1.50;;;11.70;99.90;;;;;;5084019;28;20202;-82
2022/12/29 13:36:26;;;;;;;2.57;1.33;;;11.70;99.90;;;;;;5080747;28;20218;-80
2022/12/29 13:39:04;;;;;;;4.27;1.40;;;11.80;99.90;;;;;;5085696;28;20236;-82